Time;durP1;ratioP1;P1;durP2;ratioP2;P2;SDS_P1;SDS_P2;PMS_P1;PMS_P2;Temp;Humidity;BMP_temperature;BMP_pressure;BME280_temperature;BME280_humidity;BME280_pressure;Samples;Min_cycle;Max_cycle;Signal;HPM_P1;HPM_P2
2024/03/28 00:01:01;;;;;;;22.50;6.40;;;;;;;11.21;67.82;94972.38;107925;1250;98005;-81
2024/03/28 00:03:42;;;;;;;29.90;6.40;;;;;;;11.30;67.74;94970.80;107780;1239;103737;-81
2024/03/28 00:06:08;;;;;;;24.40;6.30;;;;;;;11.39;67.50;94965.36;107776;1239;97958;-81
2024/03/28 00:08:35;;;;;;;27.90;7.00;;;;;;;11.45;67.45;94955.84;107750;1248;97897;-81
2024/03/28 00:11:01;;;;;;;19.80;5.80;;;;;;;11.50;67.32;94947.55;107788;1241;98048;-80
2024/03/28 00:13:27;;;;;;;26.30;6.50;;;;;;;11.55;67.12;94944.50;107766;1239;102571;-81
2024/03/28 00:16:02;;;;;;;28.40;6.10;;;;;;;11.59;67.05;94938.49;107739;1239;99148;-80
2024/03/28 00:18:30;;;;;;;27.50;5.70;;;;;;;11.64;66.92;94933.60;107759;1248;99064;-86
2024/03/28 00:20:58;;;;;;;30.60;6.50;;;;;;;11.70;66.82;94934.33;107766;1239;99138;-86
2024/03/28 00:23:25;;;;;;;26.10;6.20;;;;;;;11.75;66.66;94930.25;107758;1240;98374;-86
2024/03/28 00:25:56;;;;;;;34.10;7.10;;;;;;;11.77;66.61;94929.71;107734;1248;98091;-87
2024/03/28 00:28:24;;;;;;;29.90;6.90;;;;;;;11.80;66.42;94925.44;107800;1242;101242;-86
2024/03/28 00:30:51;;;;;;;42.00;7.30;;;;;;;11.84;66.40;94926.43;107721;1237;98541;-86
2024/03/28 00:33:19;;;;;;;33.80;7.30;;;;;;;11.89;66.34;94923.11;107794;1237;97949;-86
2024/03/28 00:35:47;;;;;;;26.50;7.10;;;;;;;11.92;66.11;94913.70;107736;1241;97924;-86
2024/03/28 00:38:15;;;;;;;29.00;7.30;;;;;;;11.92;65.91;94913.86;107711;1250;103459;-85
2024/03/28 00:40:53;;;;;;;30.90;7.20;;;;;;;11.92;65.83;94919.43;107763;1239;101155;-86
2024/03/28 00:43:20;;;;;;;35.60;7.20;;;;;;;11.92;65.72;94917.32;107800;1247;99835;-86
2024/03/28 00:45:47;;;;;;;26.20;7.30;;;;;;;11.90;65.78;94915.37;107802;1242;99144;-80
2024/03/28 00:48:16;;;;;;;38.00;7.90;;;;;;;11.88;65.63;94907.42;107782;1239;98009;-80
2024/03/28 00:50:50;;;;;;;33.20;7.80;;;;;;;11.84;65.75;94889.45;107830;1241;103696;-79
2024/03/28 00:53:16;;;;;;;36.00;8.10;;;;;;;11.82;65.78;94889.75;107807;1239;101198;-79
2024/03/28 00:55:43;;;;;;;40.70;9.60;;;;;;;11.79;65.88;94895.17;107731;1241;99149;-81
2024/03/28 00:58:09;;;;;;;35.90;9.40;;;;;;;11.78;65.84;94897.50;107555;1248;97934;-81
2024/03/28 01:00:36;;;;;;;41.20;8.80;;;;;;;11.81;65.93;94897.48;107490;1241;99149;-81
2024/03/28 01:03:02;;;;;;;33.20;8.30;;;;;;;11.80;65.86;94897.71;107683;1239;100220;-81
2024/03/28 01:05:29;;;;;;;42.60;8.20;;;;;;;11.81;65.84;94896.30;107745;1246;98364;-80
2024/03/28 01:07:55;;;;;;;39.70;8.30;;;;;;;11.80;65.74;94891.71;107721;1249;98025;-81
2024/03/28 01:10:22;;;;;;;44.20;8.80;;;;;;;11.77;65.84;94896.31;107809;1239;98237;-81
2024/03/28 01:12:48;;;;;;;34.10;8.90;;;;;;;11.73;65.88;94890.95;107717;1237;101172;-81
2024/03/28 01:15:14;;;;;;;41.30;9.80;;;;;;;11.69;65.98;94890.19;107776;1240;97918;-84
2024/03/28 01:17:41;;;;;;;40.40;8.80;;;;;;;11.63;66.01;94882.96;107630;1244;97838;-81
2024/03/28 01:20:07;;;;;;;49.40;9.60;;;;;;;11.60;65.97;94884.22;107552;1239;98015;-81
2024/03/28 01:22:33;;;;;;;50.40;9.90;;;;;;;11.56;66.08;94890.13;107473;1239;100953;-81
2024/03/28 01:25:00;;;;;;;46.40;10.30;;;;;;;11.53;66.20;94888.10;107438;1248;98019;-81
2024/03/28 01:27:26;;;;;;;47.70;9.90;;;;;;;11.50;66.31;94870.55;107657;1239;97919;-81
2024/03/28 01:29:53;;;;;;;45.70;10.10;;;;;;;11.50;66.35;94867.46;107831;1235;97915;-81
2024/03/28 01:32:20;;;;;;;48.10;10.10;;;;;;;11.50;66.55;94859.52;107775;1240;101513;-80
2024/03/28 01:34:46;;;;;;;46.30;9.70;;;;;;;11.59;66.54;94852.73;107728;1250;97846;-80
2024/03/28 01:37:13;;;;;;;50.00;10.50;;;;;;;11.66;66.57;94851.98;107869;1239;98423;-80
2024/03/28 01:39:40;;;;;;;61.20;12.00;;;;;;;11.69;66.27;94851.38;107897;1239;97941;-80
2024/03/28 01:42:06;;;;;;;50.90;10.20;;;;;;;11.72;66.27;94846.20;107871;1241;101154;-80
2024/03/28 01:44:33;;;;;;;51.20;9.80;;;;;;;11.75;66.23;94853.23;107865;1240;97938;-80
2024/03/28 01:46:59;;;;;;;68.20;12.00;;;;;;;11.78;66.21;94855.81;107698;1239;97909;-80
2024/03/28 01:49:27;;;;;;;58.10;10.40;;;;;;;11.82;66.19;94862.55;107726;1248;98017;-80
2024/03/28 01:51:55;;;;;;;52.30;11.20;;;;;;;11.86;66.00;94866.89;107692;1250;101567;-85
2024/03/28 01:54:23;;;;;;;61.20;10.90;;;;;;;11.91;65.85;94868.17;107719;1241;99951;-86
2024/03/28 01:56:50;;;;;;;54.80;10.40;;;;;;;11.95;65.90;94870.20;107759;1248;97985;-85
2024/03/28 01:59:17;;;;;;;46.00;9.70;;;;;;;11.97;65.79;94875.10;107656;1238;97922;-85
2024/03/28 02:01:45;;;;;;;60.60;11.70;;;;;;;11.97;65.72;94870.60;107696;1239;97963;-85
2024/03/28 02:04:12;;;;;;;47.10;10.00;;;;;;;11.95;65.65;94873.34;110059;1239;101195;-86
2024/03/28 02:06:39;;;;;;;53.60;11.20;;;;;;;11.94;65.50;94880.71;107567;1239;98540;-85
2024/03/28 02:09:07;;;;;;;63.10;10.30;;;;;;;11.92;65.53;94870.23;107696;1240;97900;-85
2024/03/28 02:11:34;;;;;;;55.60;10.10;;;;;;;11.95;65.55;94865.29;107651;1239;98059;-81
2024/03/28 02:14:01;;;;;;;63.00;11.60;;;;;;;11.97;65.55;94856.87;107376;1237;97917;-80
2024/03/28 02:16:28;;;;;;;51.10;10.90;;;;;;;11.96;65.43;94838.60;107850;1239;97964;-80
2024/03/28 02:18:58;;;;;;;61.20;11.00;;;;;;;11.96;65.52;94845.11;107868;1240;97862;-80
2024/03/28 02:21:24;;;;;;;51.60;10.50;;;;;;;11.95;65.37;94847.45;107846;1239;97913;-80
2024/03/28 02:23:52;;;;;;;55.10;11.20;;;;;;;11.98;65.35;94847.63;107887;1248;97967;-80
2024/03/28 02:26:20;;;;;;;51.70;10.60;;;;;;;12.04;65.40;94852.08;107923;1246;97948;-80
2024/03/28 02:28:46;;;;;;;57.50;11.00;;;;;;;12.07;65.11;94849.61;107773;1249;157154;-80
2024/03/28 02:31:13;;;;;;;47.80;10.20;;;;;;;12.12;65.05;94850.87;107844;1239;98706;-80
2024/03/28 02:33:40;;;;;;;62.80;11.90;;;;;;;12.14;65.04;94856.05;107782;1250;97935;-80
2024/03/28 02:36:07;;;;;;;57.80;10.80;;;;;;;12.18;64.94;94851.96;107647;1237;98012;-80
2024/03/28 02:38:34;;;;;;;70.60;13.00;;;;;;;12.23;64.87;94849.96;107904;1247;101575;-80
2024/03/28 02:41:00;;;;;;;50.60;11.60;;;;;;;12.29;64.92;94847.06;107817;1239;98014;-80
2024/03/28 02:43:27;;;;;;;68.90;12.90;;;;;;;12.33;64.72;94835.01;107860;1240;97973;-80
2024/03/28 02:45:53;;;;;;;62.50;11.90;;;;;;;12.36;64.51;94830.65;107943;1249;98512;-80
2024/03/28 02:48:19;;;;;;;69.10;12.80;;;;;;;12.38;64.49;94824.52;107850;1237;101543;-80
2024/03/28 02:50:46;;;;;;;57.50;11.10;;;;;;;12.41;64.32;94832.52;107877;1239;98063;-86
2024/03/28 02:53:13;;;;;;;51.80;11.90;;;;;;;12.43;64.29;94838.25;107310;1250;98707;-86
2024/03/28 02:55:39;;;;;;;47.70;11.20;;;;;;;12.46;64.21;94844.56;107377;1243;98202;-85
2024/03/28 02:58:05;;;;;;;62.30;12.00;;;;;;;12.47;64.10;94848.84;107581;1250;99073;-86
2024/03/28 03:00:32;;;;;;;64.20;13.40;;;;;;;12.46;64.03;94843.96;107784;1239;101426;-85
2024/03/28 03:03:01;;;;;;;51.60;10.50;;;;;;;12.43;63.97;94836.52;107680;1241;97949;-86
2024/03/28 03:05:29;;;;;;;59.80;11.90;;;;;;;12.45;63.96;94834.45;107809;1237;97915;-86
2024/03/28 03:07:55;;;;;;;62.50;12.00;;;;;;;12.45;63.93;94834.63;107787;1249;98127;-86
2024/03/28 03:10:22;;;;;;;58.10;10.40;;;;;;;12.47;63.91;94831.79;107780;1239;98841;-86
2024/03/28 03:12:48;;;;;;;56.10;11.70;;;;;;;12.47;63.89;94828.48;107694;1239;99045;-81
2024/03/28 03:15:15;;;;;;;53.60;10.30;;;;;;;12.47;63.74;94828.32;107843;1248;97921;-80
2024/03/28 03:17:41;;;;;;;47.20;11.00;;;;;;;12.47;63.74;94817.48;107787;1240;103320;-84
2024/03/28 03:20:08;;;;;;;54.40;11.30;;;;;;;12.46;63.76;94811.71;107864;1247;97916;-84
2024/03/28 03:22:35;;;;;;;58.40;11.50;;;;;;;12.44;63.75;94804.27;107823;1239;98021;-84
2024/03/28 03:25:11;;;;;;;59.20;11.70;;;;;;;12.46;63.63;94795.77;107533;1249;97898;-84
2024/03/28 03:34:34;;;;;;;55.70;11.10;;;;;;;12.45;63.67;94786.45;107782;1239;98463;-84
2024/03/28 03:35:54;;;;;;;39.00;9.40;;;;;;;12.41;63.56;94795.17;107803;1235;107151;-83
2024/03/28 03:38:21;;;;;;;58.10;10.60;;;;;;;12.38;63.59;94783.56;107826;1240;97915;-83
2024/03/28 03:40:47;;;;;;;45.90;10.50;;;;;;;12.35;63.63;94772.08;107875;1240;97926;-83
2024/03/28 03:43:13;;;;;;;51.40;10.70;;;;;;;12.35;63.56;94769.52;107940;1241;97918;-82
2024/03/28 03:45:40;;;;;;;51.40;10.00;;;;;;;12.33;63.72;94772.95;107964;1241;100095;-83
2024/03/28 03:48:06;;;;;;;45.50;9.60;;;;;;;12.32;63.68;94771.02;107873;1249;97962;-83
2024/03/28 03:50:33;;;;;;;41.40;8.90;;;;;;;12.31;63.59;94761.77;107760;1241;100339;-81
2024/03/28 03:52:59;;;;;;;54.80;9.30;;;;;;;12.31;63.70;94754.70;107868;1248;98065;-82
2024/03/28 03:55:26;;;;;;;54.80;8.70;;;;;;;12.30;63.63;94747.46;107843;1248;98861;-83
2024/03/28 03:57:52;;;;;;;51.40;9.60;;;;;;;12.27;63.75;94736.89;107865;1249;98008;-83
2024/03/28 04:00:19;;;;;;;48.10;9.70;;;;;;;12.24;63.76;94723.16;107825;1240;98014;-82
2024/03/28 04:02:45;;;;;;;35.20;9.10;;;;;;;12.23;63.98;94717.66;107926;1248;99153;-83
2024/03/28 04:05:12;;;;;;;50.60;10.10;;;;;;;12.23;63.86;94716.80;107875;1239;98858;-84
2024/03/28 04:07:38;;;;;;;53.00;9.90;;;;;;;12.24;64.03;94714.63;107836;1239;98827;-81
2024/03/28 04:10:05;;;;;;;42.00;10.20;;;;;;;12.25;64.07;94714.94;107714;1248;99221;-80
2024/03/28 04:12:32;;;;;;;49.80;10.50;;;;;;;12.27;63.99;94721.30;107791;1247;98020;-80
2024/03/28 04:14:58;;;;;;;54.30;11.00;;;;;;;12.27;64.04;94715.14;107804;1241;97958;-80
2024/03/28 04:17:24;;;;;;;52.40;10.20;;;;;;;12.28;63.99;94712.31;107739;1250;97823;-81
2024/03/28 04:19:52;;;;;;;55.80;10.60;;;;;;;12.26;64.22;94710.92;107786;1247;97944;-80
2024/03/28 04:22:18;;;;;;;46.60;10.90;;;;;;;12.28;64.25;94712.65;107764;1250;97898;-80
2024/03/28 04:24:44;;;;;;;63.90;12.00;;;;;;;12.29;64.19;94709.55;107755;1239;97998;-80
2024/03/28 04:27:11;;;;;;;42.50;10.00;;;;;;;12.31;64.11;94706.66;107819;1244;98004;-80
2024/03/28 04:29:41;;;;;;;46.80;11.00;;;;;;;12.31;64.07;94708.60;107838;1239;98447;-80
2024/03/28 04:32:07;;;;;;;59.00;11.60;;;;;;;12.32;64.13;94714.92;107877;1247;103186;-80
2024/03/28 04:34:34;;;;;;;47.90;10.80;;;;;;;12.31;64.21;94717.48;107760;1241;98401;-80
2024/03/28 04:37:00;;;;;;;44.70;10.70;;;;;;;12.30;64.14;94719.11;107718;1250;97944;-81
2024/03/28 04:39:26;;;;;;;43.60;10.60;;;;;;;12.34;64.11;94712.79;107804;1246;98311;-81
2024/03/28 04:41:53;;;;;;;45.30;11.00;;;;;;;12.36;64.07;94722.92;107757;1245;103354;-80
2024/03/28 04:44:19;;;;;;;45.30;10.40;;;;;;;12.37;64.07;94722.16;107721;1249;99039;-80
2024/03/28 04:46:45;;;;;;;46.20;10.10;;;;;;;12.37;64.13;94725.52;107584;1250;98020;-80
2024/03/28 04:49:12;;;;;;;38.80;9.70;;;;;;;12.39;64.00;94740.71;107797;1242;99197;-80
2024/03/28 04:51:38;;;;;;;42.10;7.90;;;;;;;12.40;64.08;94738.53;107759;1247;103728;-81
2024/03/28 04:54:05;;;;;;;37.20;9.40;;;;;;;12.41;64.17;94744.91;107915;1249;98008;-81
2024/03/28 04:56:34;;;;;;;44.60;9.20;;;;;;;12.41;64.13;94753.67;107843;1249;97929;-80
2024/03/28 04:59:00;;;;;;;37.00;8.60;;;;;;;12.44;64.10;94779.82;107874;1239;98008;-81
2024/03/28 05:01:26;;;;;;;40.60;8.00;;;;;;;12.45;64.17;94795.45;107881;1249;97896;-81
2024/03/28 05:03:53;;;;;;;32.00;8.50;;;;;;;12.47;64.07;94805.42;107945;1249;98453;-81
2024/03/28 05:06:20;;;;;;;35.20;7.80;;;;;;;12.50;64.03;94803.03;107808;1239;100172;-84
2024/03/28 05:08:46;;;;;;;36.40;7.90;;;;;;;12.52;64.05;94810.21;107863;1239;98615;-86
2024/03/28 05:11:12;;;;;;;35.40;7.90;;;;;;;12.54;64.05;94823.51;107895;1239;97916;-85
2024/03/28 05:13:39;;;;;;;30.20;7.70;;;;;;;12.54;64.19;94832.92;107898;1239;97947;-84
2024/03/28 05:16:07;;;;;;;28.70;7.00;;;;;;;12.54;64.31;94832.00;107803;1239;99861;-82
2024/03/28 05:18:52;;;;;;;26.20;7.60;;;;;;;12.54;64.43;94829.24;107908;1248;99151;-81
2024/03/28 05:21:20;;;;;;;26.70;6.40;;;;;;;12.54;64.45;94831.41;107710;1238;98833;-81
2024/03/28 05:23:47;;;;;;;26.20;7.40;;;;;;;12.55;64.34;94822.59;107744;1247;97996;-80
2024/03/28 05:26:14;;;;;;;26.70;7.20;;;;;;;12.56;64.27;94812.05;107553;1235;98085;-81
2024/03/28 05:28:40;;;;;;;30.40;7.30;;;;;;;12.56;64.30;94797.59;107520;1251;97900;-81
2024/03/28 05:31:16;;;;;;;34.20;7.90;;;;;;;12.56;64.36;94804.73;107732;1249;97918;-83
2024/03/28 05:33:43;;;;;;;33.70;8.00;;;;;;;12.55;64.74;94807.20;107703;1241;102075;-83
2024/03/28 05:36:10;;;;;;;32.20;8.80;;;;;;;12.53;64.46;94807.77;107807;1241;97908;-84
2024/03/28 05:38:37;;;;;;;25.20;7.40;;;;;;;12.52;64.52;94805.45;107849;1250;98389;-84
2024/03/28 05:41:04;;;;;;;28.60;7.50;;;;;;;12.54;64.47;94805.65;107801;1248;97917;-83
2024/03/28 05:43:31;;;;;;;28.50;7.90;;;;;;;12.54;64.55;94799.70;107810;1247;98391;-83
2024/03/28 05:45:57;;;;;;;29.10;6.80;;;;;;;12.55;64.70;94797.08;107892;1240;98348;-84
2024/03/28 05:48:23;;;;;;;26.50;7.80;;;;;;;12.56;64.73;94800.05;107832;1250;99818;-85
2024/03/28 05:50:50;;;;;;;28.30;10.60;;;;;;;12.57;64.76;94792.39;107792;1239;97912;-83
2024/03/28 05:53:16;;;;;;;42.50;12.00;;;;;;;12.58;64.68;94785.50;107852;1241;97939;-84
2024/03/28 05:55:43;;;;;;;29.60;8.40;;;;;;;12.59;64.74;94783.66;107915;1249;97906;-84
2024/03/28 05:58:09;;;;;;;25.80;7.80;;;;;;;12.61;64.75;94777.80;107826;1239;98924;-84
2024/03/28 06:00:37;;;;;;;29.10;7.10;;;;;;;12.62;64.94;94776.39;107837;1241;97965;-83
2024/03/28 06:03:03;;;;;;;32.00;7.90;;;;;;;12.61;64.98;94776.60;107720;1247;98354;-84
2024/03/28 06:05:31;;;;;;;25.60;7.30;;;;;;;12.61;65.10;94774.12;107707;1241;98013;-82
2024/03/28 06:07:58;;;;;;;33.80;8.10;;;;;;;12.60;65.06;94776.29;107859;1240;97820;-83
2024/03/28 06:10:24;;;;;;;34.30;7.10;;;;;;;12.61;65.14;94778.83;107804;1249;97931;-82
2024/03/28 06:12:51;;;;;;;25.80;7.60;;;;;;;12.61;65.02;94778.55;107872;1235;98924;-83
2024/03/28 06:15:18;;;;;;;28.00;7.50;;;;;;;12.62;65.12;94762.91;107858;1239;103396;-82
2024/03/28 06:17:44;;;;;;;32.40;8.20;;;;;;;12.63;65.18;94747.36;107899;1247;98815;-83
2024/03/28 06:20:11;;;;;;;28.80;6.40;;;;;;;12.66;65.30;94742.15;107845;1240;98560;-82
2024/03/28 06:22:38;;;;;;;23.20;6.70;;;;;;;12.67;65.33;94749.05;107825;1244;97910;-83
2024/03/28 06:25:06;;;;;;;23.90;6.90;;;;;;;12.69;65.39;94753.57;107888;1248;97926;-83
2024/03/28 06:27:33;;;;;;;27.90;7.40;;;;;;;12.71;65.33;94760.48;107890;1251;100295;-83
2024/03/28 06:29:59;;;;;;;17.80;5.50;;;;;;;12.73;65.21;94764.95;107838;1251;98002;-83
2024/03/28 06:32:26;;;;;;;26.50;5.70;;;;;;;12.75;65.12;94764.33;107838;1235;97979;-83
2024/03/28 06:34:53;;;;;;;25.80;6.30;;;;;;;12.78;65.21;94768.52;107932;1235;97944;-84
2024/03/28 06:37:19;;;;;;;23.60;5.60;;;;;;;12.80;65.16;94771.04;107804;1250;109195;-84
2024/03/28 06:39:47;;;;;;;29.70;7.60;;;;;;;12.81;65.29;94763.76;107686;1240;98458;-83
2024/03/28 06:42:13;;;;;;;15.40;5.60;;;;;;;12.83;65.28;94767.58;107739;1240;97931;-80
2024/03/28 06:44:44;;;;;;;25.50;5.90;;;;;;;12.85;65.23;94775.47;107828;1249;97921;-80
2024/03/28 06:47:10;;;;;;;14.60;5.40;;;;;;;12.87;65.15;94772.64;107900;1241;103525;-83
2024/03/28 06:49:37;;;;;;;19.30;5.50;;;;;;;12.90;65.14;94762.85;107838;1240;97967;-84
2024/03/28 06:52:03;;;;;;;17.90;5.40;;;;;;;12.93;65.13;94761.45;107839;1248;97968;-83
2024/03/28 06:54:30;;;;;;;18.20;4.90;;;;;;;12.94;65.01;94766.91;107826;1241;97925;-84
2024/03/28 06:56:57;;;;;;;17.30;4.80;;;;;;;12.93;65.02;94768.48;108112;1235;103395;-82
2024/03/28 06:59:23;;;;;;;17.50;5.00;;;;;;;12.94;64.95;94765.00;108107;1240;97844;-82
2024/03/28 07:01:51;;;;;;;15.50;4.80;;;;;;;12.98;64.86;94769.68;107537;1250;99170;-81
2024/03/28 07:04:18;;;;;;;21.00;4.30;;;;;;;13.02;64.90;94777.39;107733;1241;97912;-82
2024/03/28 07:06:44;;;;;;;14.20;4.40;;;;;;;13.04;64.74;94775.48;107709;1236;98587;-82
2024/03/28 07:09:11;;;;;;;14.60;4.30;;;;;;;13.07;64.56;94774.00;107806;1249;99157;-82
2024/03/28 07:11:37;;;;;;;16.20;4.70;;;;;;;13.09;64.56;94773.38;107779;1241;99600;-82
2024/03/28 07:14:04;;;;;;;10.80;4.00;;;;;;;13.11;64.55;94768.59;107699;1248;98020;-82
2024/03/28 07:16:30;;;;;;;13.00;3.90;;;;;;;13.15;64.42;94756.97;107733;1248;98006;-82
2024/03/28 07:18:57;;;;;;;10.80;4.60;;;;;;;13.19;64.50;94750.35;108030;1247;98461;-82
2024/03/28 07:21:23;;;;;;;11.90;3.40;;;;;;;13.23;64.24;94751.88;107642;1240;99069;-82
2024/03/28 07:23:50;;;;;;;15.20;3.90;;;;;;;13.25;64.03;94753.27;107718;1239;97931;-83
2024/03/28 07:26:17;;;;;;;8.20;3.00;;;;;;;13.26;64.09;94758.45;107767;1246;98477;-82
2024/03/28 07:28:44;;;;;;;11.10;3.40;;;;;;;13.27;64.10;94755.61;107778;1241;98552;-82
2024/03/28 07:31:10;;;;;;;10.90;3.70;;;;;;;13.30;64.16;94747.11;107802;1247;97944;-82
2024/03/28 07:33:37;;;;;;;16.20;3.70;;;;;;;13.34;64.18;94750.70;107708;1247;97932;-82
2024/03/28 07:36:04;;;;;;;8.90;3.20;;;;;;;13.38;63.99;94757.59;107736;1249;99298;-82
2024/03/28 07:38:30;;;;;;;11.00;3.80;;;;;;;13.39;63.65;94753.86;107719;1240;99267;-82
2024/03/28 07:40:57;;;;;;;12.30;4.40;;;;;;;13.41;63.36;94743.55;107682;1249;100511;-83
2024/03/28 07:43:23;;;;;;;10.60;3.90;;;;;;;13.47;63.50;94746.34;107872;1240;100495;-84
2024/03/28 07:45:50;;;;;;;9.90;3.50;;;;;;;13.56;63.61;94754.77;107640;1248;100389;-82
2024/03/28 07:48:16;;;;;;;13.60;4.00;;;;;;;13.63;63.26;94767.83;107607;1241;99177;-83
2024/03/28 07:50:42;;;;;;;11.10;3.30;;;;;;;13.65;63.19;94775.00;107731;1247;99269;-82
2024/03/28 07:53:09;;;;;;;12.80;4.00;;;;;;;13.65;62.89;94773.65;107787;1242;99307;-82
2024/03/28 07:55:35;;;;;;;11.00;2.90;;;;;;;13.63;62.59;94775.04;107671;1241;99780;-83
2024/03/28 07:58:02;;;;;;;8.60;2.80;;;;;;;13.61;62.65;94779.04;107752;1242;99275;-84
2024/03/28 08:00:28;;;;;;;8.70;2.90;;;;;;;13.59;62.63;94776.02;107981;1235;99301;-83
2024/03/28 08:02:54;;;;;;;6.50;2.60;;;;;;;13.61;62.34;94768.90;107829;1235;99891;-84
2024/03/28 08:05:21;;;;;;;8.20;2.90;;;;;;;13.61;62.36;94761.90;107853;1241;99190;-81
2024/03/28 08:07:48;;;;;;;8.20;2.60;;;;;;;13.64;62.53;94773.98;107736;1240;99263;-82
2024/03/28 08:10:14;;;;;;;7.00;3.10;;;;;;;13.65;62.43;94770.07;107730;1240;99347;-81
2024/03/28 08:12:41;;;;;;;6.90;2.90;;;;;;;13.68;62.37;94791.71;107754;1249;99354;-81
2024/03/28 08:15:07;;;;;;;8.60;3.20;;;;;;;13.68;62.22;94808.02;107752;1249;99191;-81
2024/03/28 08:17:37;;;;;;;9.30;2.90;;;;;;;13.67;62.26;94818.72;107467;1250;103739;-79
2024/03/28 08:20:15;;;;;;;6.00;3.00;;;;;;;13.68;62.38;94826.19;107764;1241;101237;-79
2024/03/28 08:22:44;;;;;;;15.00;3.20;;;;;;;13.70;62.20;94829.90;107718;1240;100067;-79
2024/03/28 08:25:11;;;;;;;9.70;3.30;;;;;;;13.69;62.08;94832.95;107856;1250;99346;-79
2024/03/28 08:27:39;;;;;;;13.00;4.50;;;;;;;13.71;62.47;94823.23;107809;1240;99488;-80
2024/03/28 08:30:07;;;;;;;15.10;4.40;;;;;;;13.75;62.91;94825.17;107763;1247;99353;-79
2024/03/28 08:32:34;;;;;;;12.50;4.40;;;;;;;13.81;63.99;94828.71;107521;1240;99273;-80
2024/03/28 08:35:02;;;;;;;14.50;4.30;;;;;;;13.92;64.68;94833.11;107648;1240;99333;-80
2024/03/28 08:37:28;;;;;;;11.20;4.20;;;;;;;14.02;65.39;94821.55;107738;1240;100538;-80
2024/03/28 08:39:55;;;;;;;11.00;4.70;;;;;;;14.14;65.51;94825.22;107703;1250;99307;-81
2024/03/28 08:42:21;;;;;;;7.90;4.30;;;;;;;14.24;65.35;94827.45;107913;1244;99264;-81
2024/03/28 08:44:50;;;;;;;25.30;11.60;;;;;;;14.30;65.16;94828.20;107926;1245;99400;-81
2024/03/28 08:47:16;;;;;;;16.30;6.90;;;;;;;14.35;64.93;94836.81;107857;1241;99343;-82
2024/03/28 08:49:42;;;;;;;12.60;5.70;;;;;;;14.44;64.64;94839.95;107828;1240;99259;-83
2024/03/28 08:52:09;;;;;;;12.50;4.90;;;;;;;14.52;64.31;94844.58;107836;1243;100395;-82
2024/03/28 08:54:36;;;;;;;17.20;8.20;;;;;;;14.61;64.10;94843.84;107761;1240;99242;-82
2024/03/28 08:57:03;;;;;;;20.20;8.40;;;;;;;14.67;63.94;94852.74;107598;1240;99299;-82
2024/03/28 08:59:29;;;;;;;12.10;3.70;;;;;;;14.68;63.55;94866.85;107831;1241;100599;-82
2024/03/28 09:01:55;;;;;;;15.20;4.30;;;;;;;14.64;63.18;94874.83;107849;1249;99367;-82
2024/03/28 09:04:22;;;;;;;7.90;2.70;;;;;;;14.60;62.76;94877.91;107840;1240;99384;-82
2024/03/28 09:06:49;;;;;;;4.50;2.20;;;;;;;14.55;62.27;94879.98;107764;1240;99723;-82
2024/03/28 09:09:16;;;;;;;3.10;1.70;;;;;;;14.51;61.67;94878.92;107846;1241;99277;-84
2024/03/28 09:11:42;;;;;;;2.30;1.10;;;;;;;14.45;61.15;94875.23;107763;1240;99264;-83
2024/03/28 09:14:09;;;;;;;3.10;1.30;;;;;;;14.34;60.64;94885.52;107929;1235;99273;-82
2024/03/28 09:16:35;;;;;;;7.60;1.00;;;;;;;14.26;59.98;94892.38;107668;1248;99247;-82
2024/03/28 09:19:02;;;;;;;1.20;0.80;;;;;;;14.18;59.22;94891.35;107831;1241;100540;-83
2024/03/28 09:21:29;;;;;;;3.00;1.40;;;;;;;14.15;58.69;94895.79;107726;1247;99293;-83
2024/03/28 09:23:56;;;;;;;4.50;1.70;;;;;;;14.17;58.70;94902.05;107725;1247;99323;-87
2024/03/28 09:26:22;;;;;;;2.00;1.50;;;;;;;14.21;58.32;94900.05;107738;1249;100490;-85
2024/03/28 09:28:50;;;;;;;4.80;1.40;;;;;;;14.35;58.07;94899.13;107702;1248;99709;-86
2024/03/28 09:31:16;;;;;;;1.70;1.10;;;;;;;14.54;57.21;94904.93;107509;1244;100498;-85
2024/03/28 09:33:43;;;;;;;2.90;1.00;;;;;;;14.74;55.96;94905.08;107726;1240;99319;-85
2024/03/28 09:36:09;;;;;;;3.90;1.30;;;;;;;14.94;56.57;94906.36;107622;1236;99264;-84
2024/03/28 09:38:35;;;;;;;4.00;1.20;;;;;;;15.11;56.82;94907.90;107705;1248;99284;-83
2024/03/28 09:41:14;;;;;;;2.00;1.10;;;;;;;15.25;55.74;94917.20;107734;1240;104721;-82
2024/03/28 09:43:41;;;;;;;2.60;1.00;;;;;;;15.42;54.89;94921.27;107787;1240;100431;-83
2024/03/28 09:46:09;;;;;;;4.50;1.00;;;;;;;15.56;54.60;94925.09;107704;1240;100495;-82
2024/03/28 09:48:37;;;;;;;2.90;1.20;;;;;;;15.70;53.89;94918.84;107695;1241;100514;-82
2024/03/28 09:51:06;;;;;;;2.60;1.00;;;;;;;15.89;53.82;94931.33;107722;1240;99394;-82
2024/03/28 09:53:35;;;;;;;2.00;1.30;;;;;;;16.06;52.90;94938.79;107769;1235;104774;-84
2024/03/28 09:56:02;;;;;;;2.20;0.90;;;;;;;16.24;50.84;94957.09;107723;1240;101378;-82
2024/03/28 09:58:28;;;;;;;2.10;0.80;;;;;;;16.36;50.21;94965.46;107711;1245;99288;-83
2024/03/28 10:00:56;;;;;;;3.70;0.90;;;;;;;16.34;48.57;94979.60;107687;1250;100581;-84
2024/03/28 10:03:33;;;;;;;4.60;0.90;;;;;;;16.27;47.78;94985.55;107839;1235;99264;-85
2024/03/28 10:06:00;;;;;;;2.40;1.00;;;;;;;16.11;47.64;94986.25;107843;1242;104728;-84
2024/03/28 10:08:26;;;;;;;1.70;1.00;;;;;;;16.10;47.82;94991.66;107886;1243;99325;-85
2024/03/28 10:10:54;;;;;;;2.10;0.70;;;;;;;16.48;47.22;94994.75;107833;1248;99271;-83
2024/03/28 10:13:37;;;;;;;2.50;0.90;;;;;;;16.83;46.83;94996.04;107804;1248;99340;-83
2024/03/28 10:16:06;;;;;;;2.40;0.60;;;;;;;17.03;47.66;94987.01;107853;1235;99872;-87
2024/03/28 10:18:33;;;;;;;3.70;1.10;;;;;;;17.18;46.75;94996.38;107707;1243;103340;-86
2024/03/28 10:21:00;;;;;;;3.20;0.90;;;;;;;17.41;45.48;94996.83;107730;1247;99287;-87
2024/03/28 10:23:27;;;;;;;1.70;0.90;;;;;;;17.80;46.80;94998.84;107715;1250;99355;-85
2024/03/28 10:25:54;;;;;;;1.40;0.70;;;;;;;18.17;44.66;95017.95;107693;1243;99267;-85
2024/03/28 10:28:27;;;;;;;2.20;1.00;;;;;;;18.22;42.64;95019.93;107764;1244;100520;-85
2024/03/28 10:30:55;;;;;;;2.00;0.90;;;;;;;18.13;42.70;95017.27;107620;1250;104044;-82
2024/03/28 10:33:21;;;;;;;2.10;0.50;;;;;;;17.99;42.45;95033.37;107730;1240;99633;-83
2024/03/28 10:36:01;;;;;;;4.50;0.80;;;;;;;17.75;42.42;95038.08;107830;1247;100090;-81
2024/03/28 10:38:28;;;;;;;2.80;0.70;;;;;;;17.46;42.54;95032.98;107833;1246;99263;-84
2024/03/28 10:40:57;;;;;;;1.50;0.70;;;;;;;17.30;42.78;95032.42;107833;1241;99357;-82
2024/03/28 10:43:28;;;;;;;2.50;0.60;;;;;;;17.28;42.46;95032.58;107763;1250;103474;-82
2024/03/28 10:46:03;;;;;;;2.40;0.70;;;;;;;17.30;42.24;95023.39;107810;1235;101439;-83
2024/03/28 10:48:35;;;;;;;0.90;0.50;;;;;;;17.30;42.57;95023.45;107808;1242;99284;-84
2024/03/28 10:51:08;;;;;;;1.00;0.70;;;;;;;17.34;42.58;95023.73;107684;1235;99342;-83
2024/03/28 10:53:58;;;;;;;1.50;0.50;;;;;;;17.31;42.49;95034.88;107763;1247;99711;-83
2024/03/28 10:56:25;;;;;;;1.40;0.60;;;;;;;17.21;41.75;95043.09;107820;1239;105032;-83
2024/03/28 10:58:55;;;;;;;1.10;0.60;;;;;;;17.32;41.61;95037.81;107826;1240;101178;-83
2024/03/28 11:01:22;;;;;;;0.60;0.50;;;;;;;17.39;41.82;95029.10;107766;1240;100508;-82
2024/03/28 11:03:50;;;;;;;0.90;0.40;;;;;;;17.53;41.31;95025.48;107428;1240;99343;-82
2024/03/28 11:06:18;;;;;;;1.60;0.50;;;;;;;17.76;40.79;95038.23;107574;1239;99739;-81
2024/03/28 11:08:45;;;;;;;1.60;0.60;;;;;;;18.01;39.71;95035.56;107454;1239;105080;-83
2024/03/28 11:11:12;;;;;;;2.80;0.60;;;;;;;18.27;39.86;95044.16;107600;1240;100540;-82
2024/03/28 11:13:38;;;;;;;3.50;0.70;;;;;;;18.53;39.92;95046.03;107818;1239;99299;-83
2024/03/28 11:16:09;;;;;;;2.70;0.50;;;;;;;18.91;38.28;95054.30;107718;1240;100610;-83
2024/03/28 11:18:36;;;;;;;1.30;0.60;;;;;;;19.09;36.22;95063.79;107847;1239;103574;-82
2024/03/28 11:21:03;;;;;;;1.20;0.70;;;;;;;19.13;36.84;95052.73;107717;1245;99366;-83